Terminal Aerodrome Forecast
Issued by NWS Kansas City/Pleasant Hill, MO

Home | Current Version | Previous Version | Text Only | Print | Product List | Glossary On
Versions: 1 2 3 4 5 6 7 8 9 10 11 12 13 14 15 16 17
000
FTUS43 KEAX 021700 CCA
TAFMCI
TAF COR
KMCI 021721Z 0218/0318 14012KT P6SM BKN150
     FM030000 14012KT P6SM BKN035
     FM030300 16014KT 4SM -DZ BR OVC015
     FM031200 20015G25KT P6SM SCT025 OVC050
     FM031600 24015G25KT P6SM BKN035=

USA.gov is the U.S. government's official web portal to all federal, state and local government web resources and services.